Time;durP1;ratioP1;P1;durP2;ratioP2;P2;SDS_P1;SDS_P2;PMS_P1;PMS_P2;Temp;Humidity;BMP_temperature;BMP_pressure;BME280_temperature;BME280_humidity;BME280_pressure;Samples;Min_cycle;Max_cycle;Signal;HPM_P1;HPM_P2
2023/07/03 00:00:18;;;;;;;5.28;3.50;;;25.50;40.40;;;;;;5147586;27;45472;-68
2023/07/03 00:02:49;;;;;;;5.22;3.80;;;25.40;40.40;;;;;;5147366;27;45367;-68
2023/07/03 00:05:17;;;;;;;4.88;3.55;;;25.50;40.50;;;;;;5147324;27;45261;-69
2023/07/03 00:07:46;;;;;;;5.10;3.78;;;25.40;41.10;;;;;;5147205;27;45382;-68
2023/07/03 00:10:13;;;;;;;4.72;3.40;;;25.40;40.50;;;;;;5147485;27;45507;-68
2023/07/03 00:12:40;;;;;;;5.47;3.72;;;25.40;40.60;;;;;;5147087;27;45235;-68
2023/07/03 00:15:07;;;;;;;4.18;3.55;;;25.40;40.60;;;;;;5147171;27;45255;-69
2023/07/03 00:17:37;;;;;;;4.90;3.80;;;25.40;40.70;;;;;;5147296;27;45457;-68
2023/07/03 00:20:06;;;;;;;5.70;3.88;;;25.40;40.70;;;;;;5147336;27;45555;-68
2023/07/03 00:22:33;;;;;;;5.80;3.90;;;25.40;41.30;;;;;;5147028;27;45392;-68
2023/07/03 00:25:00;;;;;;;5.80;3.80;;;25.30;40.70;;;;;;5146972;27;45400;-68
2023/07/03 00:27:27;;;;;;;4.82;3.70;;;25.30;40.80;;;;;;5147268;27;45303;-68
2023/07/03 00:29:53;;;;;;;5.30;3.55;;;25.30;40.70;;;;;;5147338;27;45292;-68
2023/07/03 00:32:20;;;;;;;5.65;3.85;;;25.30;40.70;;;;;;5146951;27;45208;-69
2023/07/03 00:34:47;;;;;;;4.72;3.53;;;25.30;40.80;;;;;;5146815;27;45443;-68
2023/07/03 00:37:15;;;;;;;4.13;3.38;;;25.30;40.80;;;;;;5148364;27;45416;-69
2023/07/03 00:39:42;;;;;;;5.20;3.70;;;25.30;40.90;;;;;;5150751;27;45293;-68
2023/07/03 00:42:09;;;;;;;4.93;3.53;;;25.30;41.00;;;;;;5150322;27;46406;-69
2023/07/03 00:44:36;;;;;;;4.22;3.60;;;25.30;40.90;;;;;;5150436;27;45272;-68
2023/07/03 00:47:03;;;;;;;5.00;4.00;;;25.20;40.90;;;;;;5150466;27;45345;-68
2023/07/03 00:49:30;;;;;;;4.30;3.35;;;25.20;41.00;;;;;;5150487;27;45360;-69
2023/07/03 00:51:57;;;;;;;4.68;3.42;;;25.20;41.00;;;;;;5149686;27;46768;-69
2023/07/03 00:54:25;;;;;;;4.88;3.80;;;25.20;41.00;;;;;;5150225;27;45321;-68
2023/07/03 00:56:52;;;;;;;5.10;3.60;;;25.20;41.00;;;;;;5150387;27;45348;-68
2023/07/03 00:59:19;;;;;;;4.55;3.47;;;25.20;41.00;;;;;;5150362;27;45288;-68
2023/07/03 01:01:49;;;;;;;4.05;3.30;;;25.20;41.10;;;;;;5149944;27;46679;-68
2023/07/03 01:04:18;;;;;;;4.47;3.38;;;25.10;41.10;;;;;;5150067;27;45585;-68
2023/07/03 01:06:54;;;;;;;4.95;3.72;;;25.10;41.10;;;;;;5150251;27;45384;-69
2023/07/03 01:09:21;;;;;;;4.00;3.53;;;25.10;41.10;;;;;;5150192;27;45563;-68
2023/07/03 01:11:49;;;;;;;4.20;3.45;;;25.10;41.10;;;;;;5149747;27;46821;-68
2023/07/03 01:14:18;;;;;;;4.70;3.58;;;25.10;41.70;;;;;;5149902;27;45413;-68
2023/07/03 01:16:45;;;;;;;4.47;3.28;;;25.10;41.10;;;;;;5150058;27;45475;-68
2023/07/03 01:19:13;;;;;;;5.13;3.70;;;25.10;41.10;;;;;;5150104;27;45371;-68
2023/07/03 01:21:44;;;;;;;5.47;3.95;;;25.10;41.20;;;;;;5149599;27;45674;-68
2023/07/03 01:24:11;;;;;;;5.07;3.40;;;25.00;41.20;;;;;;5149666;27;45314;-68
2023/07/03 01:26:39;;;;;;;4.63;3.55;;;25.00;41.20;;;;;;5149842;27;45393;-68
2023/07/03 01:29:06;;;;;;;4.85;3.83;;;25.00;41.30;;;;;;5149851;27;45297;-68
2023/07/03 01:31:35;;;;;;;4.57;3.28;;;25.00;41.30;;;;;;5149492;27;46366;-68
2023/07/03 01:34:02;;;;;;;4.82;3.58;;;25.00;41.40;;;;;;5149556;27;45303;-68
2023/07/03 01:36:29;;;;;;;6.05;3.65;;;25.00;42.00;;;;;;5149603;27;45276;-68
2023/07/03 01:38:56;;;;;;;4.82;3.50;;;25.00;41.40;;;;;;5150010;27;45311;-68
2023/07/03 01:41:22;;;;;;;4.88;3.53;;;25.00;41.40;;;;;;5149280;27;45268;-68
2023/07/03 01:43:51;;;;;;;4.95;3.38;;;25.00;41.40;;;;;;5149310;27;45277;-69
2023/07/03 01:46:17;;;;;;;4.03;3.42;;;25.00;41.40;;;;;;5149488;27;45388;-68
2023/07/03 01:48:44;;;;;;;3.70;3.22;;;25.00;41.40;;;;;;5148355;27;45304;-68
2023/07/03 01:51:13;;;;;;;4.60;3.25;;;24.90;41.40;;;;;;5148826;27;47346;-68
2023/07/03 01:53:43;;;;;;;4.47;3.42;;;24.90;41.50;;;;;;5149162;27;45449;-68
2023/07/03 01:56:12;;;;;;;6.30;3.58;;;24.90;41.50;;;;;;5149303;27;45272;-68
2023/07/03 01:58:42;;;;;;;4.88;3.38;;;24.90;41.50;;;;;;5149342;27;45346;-68
2023/07/03 02:01:12;;;;;;;4.90;3.67;;;24.90;41.50;;;;;;5148902;27;45169;-68
2023/07/03 02:03:41;;;;;;;4.47;3.50;;;24.90;41.60;;;;;;5149038;27;45389;-68
2023/07/03 02:06:09;;;;;;;4.45;3.20;;;24.90;41.60;;;;;;5149219;27;45513;-68
2023/07/03 02:08:36;;;;;;;6.03;3.30;;;24.90;41.60;;;;;;5149179;27;45397;-68
2023/07/03 02:11:03;;;;;;;4.60;3.47;;;24.90;41.60;;;;;;5148727;27;46677;-68
2023/07/03 02:13:30;;;;;;;4.05;3.03;;;24.80;42.20;;;;;;5148910;27;45364;-68
2023/07/03 02:15:56;;;;;;;3.40;3.10;;;24.80;41.60;;;;;;5148952;27;45315;-68
2023/07/03 02:18:25;;;;;;;6.50;3.83;;;24.80;41.60;;;;;;5149072;27;45293;-68
2023/07/03 02:20:52;;;;;;;5.10;3.40;;;24.80;41.60;;;;;;5148610;27;46655;-68
2023/07/03 02:23:18;;;;;;;4.72;3.20;;;24.80;41.60;;;;;;5148739;27;45378;-68
2023/07/03 02:25:45;;;;;;;4.20;3.08;;;24.80;41.70;;;;;;5148792;27;45332;-68
2023/07/03 02:28:12;;;;;;;4.43;3.33;;;24.80;41.70;;;;;;5149073;27;45300;-69
2023/07/03 02:30:39;;;;;;;4.35;3.67;;;24.80;41.80;;;;;;5148396;27;46418;-68
2023/07/03 02:33:06;;;;;;;4.13;3.60;;;24.80;41.70;;;;;;5148571;27;45347;-68
2023/07/03 02:35:35;;;;;;;4.95;3.63;;;24.80;42.20;;;;;;5148863;27;45267;-68
2023/07/03 02:38:02;;;;;;;4.13;3.30;;;24.70;41.70;;;;;;5149030;27;45310;-68
2023/07/03 02:40:29;;;;;;;4.32;3.28;;;24.70;41.80;;;;;;5148248;27;47229;-68
2023/07/03 02:42:56;;;;;;;4.30;3.45;;;24.70;41.80;;;;;;5148574;27;45263;-68
2023/07/03 02:45:23;;;;;;;4.95;3.65;;;24.70;41.80;;;;;;5148590;27;45344;-69
2023/07/03 02:47:49;;;;;;;5.25;3.60;;;24.70;41.80;;;;;;5148620;27;45392;-69
2023/07/03 02:50:16;;;;;;;4.10;3.30;;;24.70;41.80;;;;;;5148078;27;46377;-69
2023/07/03 02:52:44;;;;;;;3.80;3.05;;;24.70;41.90;;;;;;5148173;27;45360;-68
2023/07/03 02:55:12;;;;;;;4.72;3.25;;;24.70;41.90;;;;;;5148485;27;45289;-69
2023/07/03 02:57:39;;;;;;;3.80;3.40;;;24.70;41.90;;;;;;5148456;27;45361;-69
2023/07/03 03:00:07;;;;;;;5.93;3.45;;;24.70;41.90;;;;;;5147679;27;45601;-68
2023/07/03 03:02:39;;;;;;;5.35;3.70;;;24.70;41.90;;;;;;5148125;27;45254;-69
2023/07/03 03:05:06;;;;;;;5.15;3.38;;;24.70;41.90;;;;;;5148336;27;45287;-68
2023/07/03 03:07:33;;;;;;;5.95;3.22;;;24.70;41.90;;;;;;5148244;27;45562;-69
2023/07/03 03:10:01;;;;;;;4.53;3.40;;;24.70;42.00;;;;;;5147843;27;46340;-68
2023/07/03 03:12:28;;;;;;;4.78;3.13;;;24.70;42.00;;;;;;5147975;27;45208;-69
2023/07/03 03:14:55;;;;;;;4.38;3.08;;;24.70;41.90;;;;;;5148183;27;45345;-69
2023/07/03 03:17:22;;;;;;;4.18;3.45;;;24.70;42.00;;;;;;5148114;27;45422;-68
2023/07/03 03:19:49;;;;;;;4.47;3.47;;;24.70;42.00;;;;;;5147910;27;45491;-68
2023/07/03 03:22:15;;;;;;;5.03;3.53;;;24.60;42.00;;;;;;5147842;27;45325;-68
2023/07/03 03:24:42;;;;;;;4.18;3.00;;;24.60;42.00;;;;;;5147964;27;45323;-68
2023/07/03 03:27:10;;;;;;;4.28;3.30;;;24.60;42.00;;;;;;5147978;27;45501;-68
2023/07/03 03:29:38;;;;;;;4.63;3.53;;;24.60;42.10;;;;;;5144823;27;46133;-70
2023/07/03 03:32:06;;;;;;;4.40;3.30;;;24.60;42.10;;;;;;5147648;27;45341;-69
2023/07/03 03:34:34;;;;;;;4.05;3.17;;;24.60;42.10;;;;;;5147780;27;45305;-69
2023/07/03 03:37:01;;;;;;;5.07;3.25;;;24.60;42.70;;;;;;5148053;27;45295;-69
2023/07/03 03:39:27;;;;;;;5.28;3.63;;;24.60;42.20;;;;;;5147426;27;45344;-69
2023/07/03 03:41:54;;;;;;;5.00;3.15;;;24.60;42.20;;;;;;5147596;27;45244;-68
2023/07/03 03:44:22;;;;;;;5.38;3.65;;;24.60;42.10;;;;;;5147763;27;45342;-69
2023/07/03 03:46:49;;;;;;;5.55;3.08;;;24.60;42.10;;;;;;5147748;27;45476;-69
2023/07/03 03:49:16;;;;;;;4.03;3.03;;;24.60;42.20;;;;;;5146868;27;45524;-69
2023/07/03 03:51:43;;;;;;;6.45;3.33;;;24.60;42.20;;;;;;5146942;27;46527;-69
2023/07/03 03:54:10;;;;;;;3.63;3.05;;;24.60;42.20;;;;;;5147479;27;45260;-68
2023/07/03 03:56:37;;;;;;;4.35;3.42;;;24.60;42.20;;;;;;5147700;27;45154;-69
2023/07/03 03:59:04;;;;;;;4.63;3.28;;;24.60;42.20;;;;;;5147191;27;46372;-69
2023/07/03 04:01:34;;;;;;;3.22;2.85;;;24.60;42.90;;;;;;5147253;27;45398;-69
2023/07/03 04:04:01;;;;;;;4.30;3.03;;;24.50;42.20;;;;;;5147416;27;45295;-70
2023/07/03 04:06:27;;;;;;;3.60;2.78;;;24.50;42.20;;;;;;5147590;27;45181;-69
2023/07/03 04:08:58;;;;;;;4.35;3.17;;;24.50;42.20;;;;;;5147019;27;45380;-70
2023/07/03 04:11:25;;;;;;;3.58;2.95;;;24.50;42.20;;;;;;5147301;27;45329;-69
2023/07/03 04:13:52;;;;;;;5.03;3.50;;;24.50;42.20;;;;;;5150953;27;45247;-69
2023/07/03 04:16:19;;;;;;;4.07;3.10;;;24.50;42.20;;;;;;5151182;27;45267;-69
2023/07/03 04:18:47;;;;;;;4.22;3.00;;;24.50;42.20;;;;;;5150673;27;46474;-69
2023/07/03 04:21:13;;;;;;;3.85;3.10;;;24.50;42.90;;;;;;5150578;27;45373;-69
2023/07/03 04:23:40;;;;;;;3.72;2.92;;;24.50;42.30;;;;;;5150977;27;45344;-68
2023/07/03 04:26:07;;;;;;;4.43;3.30;;;24.50;42.30;;;;;;5150877;27;45422;-69
2023/07/03 04:28:34;;;;;;;3.47;3.03;;;24.50;42.30;;;;;;5150413;27;45309;-69
2023/07/03 04:31:02;;;;;;;3.35;2.70;;;24.50;42.40;;;;;;5150382;27;45414;-69
2023/07/03 04:33:29;;;;;;;4.75;3.25;;;24.50;42.40;;;;;;5151053;27;45494;-68
2023/07/03 04:35:57;;;;;;;4.68;2.83;;;24.50;42.40;;;;;;5150822;27;45326;-69
2023/07/03 04:38:24;;;;;;;4.22;3.15;;;24.50;42.40;;;;;;5150365;27;47286;-69
2023/07/03 04:40:51;;;;;;;5.10;3.15;;;24.50;42.40;;;;;;5150359;27;45333;-68
2023/07/03 04:43:18;;;;;;;3.50;2.78;;;24.50;42.40;;;;;;5150621;27;45407;-68
2023/07/03 04:45:45;;;;;;;3.80;2.80;;;24.50;42.40;;;;;;5150993;27;45405;-68
2023/07/03 04:48:12;;;;;;;4.35;3.20;;;24.50;42.40;;;;;;5150132;27;45265;-68
2023/07/03 04:50:38;;;;;;;3.28;2.97;;;24.50;42.40;;;;;;5149801;27;45355;-68
2023/07/03 04:53:07;;;;;;;3.15;2.80;;;24.40;42.40;;;;;;5150321;27;45422;-69
2023/07/03 04:55:33;;;;;;;3.80;2.72;;;24.40;42.40;;;;;;5150536;27;45585;-69
2023/07/03 04:58:00;;;;;;;4.93;3.30;;;24.40;42.40;;;;;;5150055;27;45400;-68
2023/07/03 05:00:27;;;;;;;3.83;3.15;;;24.40;42.50;;;;;;5150064;27;45394;-69
2023/07/03 05:03:02;;;;;;;3.65;2.90;;;24.40;42.40;;;;;;5150242;27;45360;-68
2023/07/03 05:05:29;;;;;;;3.88;2.85;;;24.40;42.40;;;;;;5150306;27;45494;-68
2023/07/03 05:07:56;;;;;;;4.05;2.95;;;24.40;42.50;;;;;;5149907;27;47023;-68
2023/07/03 05:10:24;;;;;;;4.00;3.10;;;24.40;42.50;;;;;;5149781;27;45456;-68
2023/07/03 05:12:51;;;;;;;4.22;3.40;;;24.40;42.50;;;;;;5150109;27;45329;-69
2023/07/03 05:15:19;;;;;;;3.45;2.80;;;24.40;42.50;;;;;;5150152;27;45360;-68
2023/07/03 05:17:49;;;;;;;3.88;2.60;;;24.40;42.50;;;;;;5149695;27;46408;-68
2023/07/03 05:20:17;;;;;;;3.78;3.10;;;24.40;42.50;;;;;;5149684;27;45272;-68
2023/07/03 05:22:44;;;;;;;3.92;2.92;;;24.40;42.50;;;;;;5149860;27;45270;-68
2023/07/03 05:25:12;;;;;;;4.25;2.83;;;24.40;42.60;;;;;;5149908;27;45397;-69
2023/07/03 05:27:40;;;;;;;3.47;2.70;;;24.40;42.50;;;;;;5149376;27;46367;-68
2023/07/03 05:30:08;;;;;;;4.72;3.08;;;24.40;42.60;;;;;;5149540;27;45390;-68
2023/07/03 05:32:35;;;;;;;5.55;2.90;;;24.40;42.60;;;;;;5149740;27;45287;-68
2023/07/03 05:35:02;;;;;;;3.20;2.75;;;24.40;42.60;;;;;;5149816;27;45362;-69
2023/07/03 05:37:29;;;;;;;4.32;3.30;;;24.40;42.60;;;;;;5149382;27;46384;-68
2023/07/03 05:39:56;;;;;;;3.60;2.85;;;24.40;42.60;;;;;;5149432;27;45269;-68
2023/07/03 05:42:23;;;;;;;3.50;2.90;;;24.40;42.60;;;;;;5149323;27;45260;-68
2023/07/03 05:44:51;;;;;;;3.70;2.97;;;24.40;42.60;;;;;;5149662;27;45160;-68
2023/07/03 05:47:18;;;;;;;3.35;2.95;;;24.40;42.60;;;;;;5149122;27;45476;-68
2023/07/03 05:49:44;;;;;;;5.53;3.58;;;24.40;42.60;;;;;;5149043;27;45380;-68
2023/07/03 05:52:11;;;;;;;4.85;3.30;;;24.40;42.60;;;;;;5149093;27;45548;-68
2023/07/03 05:54:38;;;;;;;4.47;3.13;;;24.40;42.70;;;;;;5149629;27;45292;-68
2023/07/03 05:57:06;;;;;;;4.20;2.95;;;24.40;42.70;;;;;;5148981;27;46396;-68
2023/07/03 05:59:33;;;;;;;3.83;2.90;;;24.40;42.70;;;;;;5148955;27;45421;-68
2023/07/03 06:02:03;;;;;;;4.82;2.83;;;24.40;43.30;;;;;;5149297;27;45372;-68
2023/07/03 06:04:30;;;;;;;3.47;2.80;;;24.40;42.70;;;;;;5149309;27;45360;-68
2023/07/03 06:06:57;;;;;;;3.78;3.00;;;24.40;42.70;;;;;;5148880;27;46279;-68
2023/07/03 06:09:24;;;;;;;4.13;2.80;;;24.40;42.70;;;;;;5148838;27;45318;-68
2023/07/03 06:11:51;;;;;;;4.70;3.42;;;24.40;42.80;;;;;;5149045;27;45289;-69
2023/07/03 06:14:18;;;;;;;4.15;3.00;;;24.40;42.70;;;;;;5149030;27;45642;-69
2023/07/03 06:16:45;;;;;;;4.82;3.03;;;24.30;42.80;;;;;;5148725;27;47929;-68
2023/07/03 06:19:13;;;;;;;3.72;3.15;;;24.40;42.80;;;;;;5148655;27;45307;-68
2023/07/03 06:21:40;;;;;;;3.55;3.08;;;24.40;42.70;;;;;;5148825;27;45297;-68
2023/07/03 06:24:08;;;;;;;3.70;2.80;;;24.40;42.70;;;;;;5149052;27;45322;-68
2023/07/03 06:26:35;;;;;;;5.25;3.10;;;24.40;42.70;;;;;;5148619;27;46720;-68
2023/07/03 06:29:02;;;;;;;3.88;3.10;;;24.40;42.80;;;;;;5148608;27;45345;-68
2023/07/03 06:31:29;;;;;;;5.43;3.28;;;24.40;42.80;;;;;;5148665;27;45361;-68
2023/07/03 06:33:56;;;;;;;3.78;2.67;;;24.40;42.90;;;;;;5148685;27;45419;-68
2023/07/03 06:36:25;;;;;;;3.97;3.40;;;24.40;42.80;;;;;;5148005;27;46524;-68
2023/07/03 06:38:53;;;;;;;3.70;3.05;;;24.40;42.90;;;;;;5148397;27;45386;-68
2023/07/03 06:41:20;;;;;;;4.18;2.97;;;24.40;42.80;;;;;;5148497;27;45299;-68
2023/07/03 06:43:46;;;;;;;4.00;3.10;;;24.40;42.80;;;;;;5148858;27;45385;-68
2023/07/03 06:46:14;;;;;;;4.63;3.28;;;24.40;42.70;;;;;;5148273;27;46322;-68
2023/07/03 06:48:41;;;;;;;3.92;2.85;;;24.50;42.70;;;;;;5148335;27;45297;-68
2023/07/03 06:51:09;;;;;;;3.90;2.95;;;24.50;42.80;;;;;;5147912;27;45326;-68
2023/07/03 06:53:37;;;;;;;3.45;2.85;;;24.50;42.80;;;;;;5148640;27;45415;-68
2023/07/03 06:56:05;;;;;;;4.20;2.97;;;24.50;42.70;;;;;;5148217;27;46341;-68
2023/07/03 06:58:32;;;;;;;4.68;3.50;;;24.50;42.60;;;;;;5148092;27;45232;-68
2023/07/03 07:00:59;;;;;;;4.20;2.78;;;24.50;42.70;;;;;;5148213;27;45338;-69
2023/07/03 07:03:26;;;;;;;5.03;3.17;;;24.60;42.70;;;;;;5148339;27;45295;-68
2023/07/03 07:05:54;;;;;;;3.25;2.80;;;24.60;42.60;;;;;;5147352;27;45320;-68
2023/07/03 07:08:21;;;;;;;3.92;3.10;;;24.60;42.60;;;;;;5148095;27;45280;-67
2023/07/03 07:10:49;;;;;;;3.67;2.83;;;24.60;42.60;;;;;;5147918;27;45338;-68
2023/07/03 07:13:16;;;;;;;5.07;3.33;;;24.60;42.60;;;;;;5148267;27;45488;-68
2023/07/03 07:15:43;;;;;;;5.32;3.03;;;24.70;42.60;;;;;;5145001;27;45450;-67
2023/07/03 07:18:10;;;;;;;4.80;3.20;;;24.70;43.10;;;;;;5147975;27;46266;-67
2023/07/03 07:20:37;;;;;;;4.55;3.25;;;24.70;42.60;;;;;;5147911;27;45198;-68
2023/07/03 07:23:04;;;;;;;4.38;3.17;;;24.70;42.50;;;;;;5148082;27;45361;-68
2023/07/03 07:25:31;;;;;;;4.15;3.20;;;24.70;42.50;;;;;;5147415;27;46362;-67
2023/07/03 07:27:59;;;;;;;4.25;3.30;;;24.70;42.50;;;;;;5147997;27;45309;-67
2023/07/03 07:30:25;;;;;;;4.25;3.03;;;24.70;42.40;;;;;;5147561;27;45235;-68
2023/07/03 07:32:52;;;;;;;4.30;2.92;;;24.80;42.40;;;;;;5148026;27;45424;-68
2023/07/03 07:35:19;;;;;;;4.43;3.30;;;24.80;42.40;;;;;;5147550;27;46357;-68
2023/07/03 07:37:46;;;;;;;4.32;3.60;;;24.80;42.40;;;;;;5147368;27;45392;-68
2023/07/03 07:40:13;;;;;;;3.92;3.13;;;24.80;42.40;;;;;;5147850;27;45248;-69
2023/07/03 07:42:40;;;;;;;4.20;3.22;;;24.80;42.30;;;;;;5147832;27;45307;-68
2023/07/03 07:45:09;;;;;;;5.63;3.67;;;24.80;42.30;;;;;;5147540;27;45259;-68
2023/07/03 07:47:36;;;;;;;4.07;3.03;;;24.90;42.40;;;;;;5149390;27;45436;-68
2023/07/03 07:50:03;;;;;;;4.70;3.20;;;24.90;42.40;;;;;;5151147;27;45322;-68
2023/07/03 07:52:31;;;;;;;5.65;2.95;;;24.90;42.30;;;;;;5151218;27;45321;-67
2023/07/03 07:54:58;;;;;;;5.00;3.55;;;24.90;42.30;;;;;;5151017;27;46755;-68
2023/07/03 07:57:26;;;;;;;4.10;3.08;;;25.00;42.30;;;;;;5150982;27;45400;-67
2023/07/03 07:59:52;;;;;;;4.28;3.20;;;25.00;42.30;;;;;;5151147;27;45363;-68
2023/07/03 08:02:21;;;;;;;4.32;3.15;;;25.00;42.40;;;;;;5151367;27;45346;-67
2023/07/03 08:04:48;;;;;;;4.47;3.20;;;25.00;42.30;;;;;;5150891;27;45326;-67
2023/07/03 08:07:15;;;;;;;4.45;3.22;;;25.00;42.20;;;;;;5150927;27;45388;-67
2023/07/03 08:09:42;;;;;;;5.25;3.60;;;25.00;42.20;;;;;;5151008;27;45501;-67
2023/07/03 08:12:10;;;;;;;3.80;3.33;;;25.00;42.20;;;;;;5151055;27;45479;-68
2023/07/03 08:14:36;;;;;;;4.22;3.40;;;25.10;42.20;;;;;;5150702;27;45262;-68
2023/07/03 08:17:03;;;;;;;6.20;3.28;;;25.10;42.20;;;;;;5150819;27;45458;-68
2023/07/03 08:19:32;;;;;;;4.07;2.95;;;25.10;42.20;;;;;;5150851;27;45152;-69
2023/07/03 08:21:59;;;;;;;5.03;3.17;;;25.20;42.20;;;;;;5151133;27;45315;-68
2023/07/03 08:24:25;;;;;;;6.28;3.50;;;25.20;42.20;;;;;;5150779;27;47626;-69
2023/07/03 08:26:54;;;;;;;4.65;3.33;;;25.20;42.10;;;;;;5150698;27;45618;-68
2023/07/03 08:29:21;;;;;;;4.65;3.25;;;25.20;42.20;;;;;;5150713;27;45388;-69
2023/07/03 08:31:47;;;;;;;5.65;4.07;;;25.20;42.40;;;;;;5150708;27;45309;-68
2023/07/03 08:34:15;;;;;;;4.95;2.90;;;25.20;42.20;;;;;;5143661;27;45464;-69
2023/07/03 08:36:43;;;;;;;6.63;3.30;;;25.20;42.40;;;;;;5141559;27;45236;-69
2023/07/03 08:39:10;;;;;;;5.80;4.07;;;25.30;42.30;;;;;;5150954;27;45349;-69
2023/07/03 08:41:39;;;;;;;6.07;3.65;;;25.30;42.20;;;;;;5150978;27;45453;-69
2023/07/03 08:44:07;;;;;;;10.30;4.60;;;25.30;42.20;;;;;;5150583;27;46413;-69
2023/07/03 08:46:35;;;;;;;10.18;4.45;;;25.40;42.10;;;;;;5150612;27;45234;-69
2023/07/03 08:49:04;;;;;;;7.93;4.20;;;25.30;42.00;;;;;;5150538;27;45286;-69
2023/07/03 08:51:31;;;;;;;10.02;4.93;;;25.40;42.10;;;;;;5150784;27;45591;-69
2023/07/03 08:54:04;;;;;;;10.10;4.63;;;25.40;41.90;;;;;;5150338;27;46386;-68
2023/07/03 08:56:33;;;;;;;11.43;5.05;;;25.40;42.00;;;;;;5150598;27;45259;-69
2023/07/03 08:59:00;;;;;;;8.63;4.60;;;25.50;42.60;;;;;;5150170;27;45277;-69
2023/07/03 09:01:29;;;;;;;7.22;4.45;;;25.50;42.00;;;;;;5150541;27;45352;-69
2023/07/03 09:04:04;;;;;;;9.02;4.40;;;25.60;42.00;;;;;;5149889;27;46329;-69
2023/07/03 09:06:33;;;;;;;7.35;4.15;;;25.60;42.10;;;;;;5149817;27;45321;-69
2023/07/03 09:09:04;;;;;;;8.60;4.20;;;25.60;42.00;;;;;;5149917;27;45344;-69
2023/07/03 09:11:32;;;;;;;10.38;4.75;;;25.70;42.10;;;;;;5150204;27;45251;-69
2023/07/03 09:14:00;;;;;;;10.25;4.35;;;25.70;42.10;;;;;;5149365;27;46374;-68
2023/07/03 09:16:26;;;;;;;10.10;4.40;;;25.70;42.10;;;;;;5150395;27;45334;-70
2023/07/03 09:18:56;;;;;;;10.63;4.82;;;25.80;42.10;;;;;;5150439;27;45284;-71
2023/07/03 09:21:23;;;;;;;8.07;4.70;;;25.80;42.20;;;;;;5150431;27;45423;-71
2023/07/03 09:23:52;;;;;;;9.02;4.75;;;25.80;42.10;;;;;;5150089;27;46561;-70
2023/07/03 09:26:22;;;;;;;9.43;4.45;;;25.90;42.20;;;;;;5150103;27;45190;-70
2023/07/03 09:28:49;;;;;;;7.93;4.93;;;25.90;42.10;;;;;;5150070;27;45331;-71
2023/07/03 09:31:16;;;;;;;9.50;4.53;;;25.90;42.20;;;;;;5150254;27;45492;-70
2023/07/03 09:33:43;;;;;;;8.70;4.97;;;26.00;42.20;;;;;;5149902;27;46455;-70
2023/07/03 09:36:22;;;;;;;9.70;5.38;;;26.00;42.20;;;;;;5149933;27;45342;-70
2023/07/03 09:38:49;;;;;;;8.35;5.22;;;26.00;42.20;;;;;;5150507;27;45282;-70
2023/07/03 09:41:27;;;;;;;8.27;5.38;;;26.00;42.20;;;;;;5150010;27;45438;-71
2023/07/03 09:43:55;;;;;;;10.73;5.35;;;26.00;42.20;;;;;;5149972;27;45526;-71
2023/07/03 09:46:22;;;;;;;9.65;4.93;;;26.10;42.20;;;;;;5150057;27;45257;-71
2023/07/03 09:48:48;;;;;;;10.95;5.30;;;26.10;42.20;;;;;;5149882;27;45394;-70
2023/07/03 09:51:23;;;;;;;9.90;5.70;;;26.10;42.20;;;;;;5149574;27;45363;-70
2023/07/03 09:53:50;;;;;;;8.27;5.45;;;26.10;42.20;;;;;;5149529;27;47260;-72
2023/07/03 09:56:18;;;;;;;8.27;5.18;;;26.20;42.30;;;;;;5149518;27;45251;-71
2023/07/03 09:58:47;;;;;;;9.90;5.70;;;26.20;42.20;;;;;;5150008;27;45253;-71
2023/07/03 10:01:17;;;;;;;9.65;5.50;;;26.10;42.20;;;;;;5150177;27;45374;-71
2023/07/03 10:03:43;;;;;;;9.57;5.25;;;26.10;42.30;;;;;;5149770;27;47097;-71
2023/07/03 10:06:15;;;;;;;10.32;6.13;;;26.20;42.50;;;;;;5149049;27;45244;-68
2023/07/03 10:08:43;;;;;;;7.43;4.88;;;26.20;42.70;;;;;;5148991;27;45377;-68
2023/07/03 10:11:09;;;;;;;6.93;4.78;;;26.20;42.70;;;;;;5148536;27;45319;-68
2023/07/03 10:13:38;;;;;;;9.57;4.90;;;26.20;42.70;;;;;;5148864;27;46950;-67
2023/07/03 10:16:07;;;;;;;8.40;4.70;;;26.20;42.60;;;;;;5148798;27;45311;-67
2023/07/03 10:18:35;;;;;;;8.82;4.38;;;26.20;42.50;;;;;;5149277;27;45241;-67
2023/07/03 10:21:03;;;;;;;7.95;4.45;;;26.10;42.40;;;;;;5149024;27;45233;-67
2023/07/03 10:23:31;;;;;;;9.70;4.95;;;26.20;42.50;;;;;;5148772;27;45356;-67
2023/07/03 10:25:59;;;;;;;7.03;4.53;;;26.20;42.60;;;;;;5148741;27;45329;-67
2023/07/03 10:28:28;;;;;;;6.43;4.03;;;26.20;42.50;;;;;;5148848;27;45302;-68
2023/07/03 10:30:58;;;;;;;8.80;4.55;;;26.30;42.50;;;;;;5148798;27;45315;-68
2023/07/03 10:33:28;;;;;;;6.90;4.55;;;26.30;42.20;;;;;;5148620;27;46741;-67
2023/07/03 10:35:55;;;;;;;5.75;4.15;;;26.40;42.10;;;;;;5148580;27;45346;-68
2023/07/03 10:38:26;;;;;;;7.93;3.92;;;26.40;41.90;;;;;;5148639;27;45328;-67
2023/07/03 10:40:57;;;;;;;7.32;3.95;;;26.50;41.80;;;;;;5148649;27;45411;-68
2023/07/03 10:43:24;;;;;;;7.75;3.80;;;26.50;41.80;;;;;;5148431;27;45518;-67
2023/07/03 10:45:50;;;;;;;6.50;4.28;;;26.50;41.80;;;;;;5148488;27;45334;-68
2023/07/03 10:48:19;;;;;;;7.95;4.43;;;26.50;41.80;;;;;;5148461;27;45319;-68
2023/07/03 10:50:51;;;;;;;5.65;3.90;;;26.50;41.70;;;;;;5148511;27;45426;-69
2023/07/03 10:53:21;;;;;;;5.25;4.10;;;26.50;41.70;;;;;;5148026;27;46825;-67
2023/07/03 10:55:54;;;;;;;7.78;3.97;;;26.50;41.70;;;;;;5148375;27;45297;-68
2023/07/03 10:58:26;;;;;;;6.57;4.18;;;26.50;41.70;;;;;;5148252;27;45335;-67
2023/07/03 11:00:55;;;;;;;6.50;3.53;;;26.60;41.70;;;;;;5148339;27;45261;-68
2023/07/03 11:03:23;;;;;;;7.18;4.20;;;26.60;41.60;;;;;;5148108;27;46428;-68
2023/07/03 11:05:54;;;;;;;5.40;3.88;;;26.60;41.60;;;;;;5148115;27;45337;-68
2023/07/03 11:08:24;;;;;;;9.23;4.60;;;26.70;41.70;;;;;;5148306;27;45389;-68
2023/07/03 11:10:56;;;;;;;5.70;3.70;;;26.70;41.60;;;;;;5148285;27;45264;-68
2023/07/03 11:13:26;;;;;;;6.03;4.03;;;26.80;41.50;;;;;;5147756;27;46403;-68
2023/07/03 11:15:57;;;;;;;5.57;3.55;;;26.80;41.40;;;;;;5147882;27;45274;-68
2023/07/03 11:18:32;;;;;;;8.48;4.03;;;26.90;41.30;;;;;;5148007;27;45199;-68
2023/07/03 11:21:11;;;;;;;5.88;3.83;;;26.90;41.30;;;;;;5147922;27;45416;-68
2023/07/03 11:23:43;;;;;;;8.07;3.95;;;27.00;41.40;;;;;;5147682;27;46350;-68
2023/07/03 11:26:13;;;;;;;4.75;3.85;;;27.00;42.00;;;;;;5145212;27;45177;-68
2023/07/03 11:28:43;;;;;;;9.00;3.92;;;27.00;41.30;;;;;;5147739;27;45447;-68
2023/07/03 11:31:09;;;;;;;5.20;3.45;;;27.00;41.40;;;;;;5147883;27;45578;-68
2023/07/03 11:33:36;;;;;;;7.35;3.70;;;27.00;41.30;;;;;;5147493;27;45310;-68
2023/07/03 11:36:05;;;;;;;5.40;3.80;;;27.00;41.40;;;;;;5144913;27;45322;-68
2023/07/03 11:38:32;;;;;;;6.38;3.75;;;27.00;41.30;;;;;;5147694;27;45302;-68
2023/07/03 11:41:02;;;;;;;6.07;3.20;;;27.00;41.30;;;;;;5147685;27;45603;-68
2023/07/03 11:43:33;;;;;;;5.13;3.63;;;27.00;41.30;;;;;;5147448;27;45320;-68
2023/07/03 11:46:08;;;;;;;4.50;3.40;;;27.10;41.30;;;;;;5147596;27;45342;-69
2023/07/03 11:48:43;;;;;;;6.80;3.70;;;27.10;41.40;;;;;;5147591;27;45321;-68
2023/07/03 11:51:13;;;;;;;5.00;3.10;;;27.10;41.30;;;;;;5147416;27;45407;-68
2023/07/03 11:53:43;;;;;;;4.80;3.33;;;27.10;41.40;;;;;;5147319;27;45387;-67
2023/07/03 11:56:13;;;;;;;7.78;3.60;;;27.10;41.30;;;;;;5147509;27;45265;-68
2023/07/03 11:58:40;;;;;;;4.97;3.47;;;27.10;41.30;;;;;;5147969;27;45355;-70
2023/07/03 12:01:27;;;;;;;6.13;3.30;;;27.20;41.60;;;;;;5144893;27;45368;-68
2023/07/03 12:03:55;;;;;;;6.40;3.38;;;27.10;41.60;;;;;;5126705;27;47304;-69
2023/07/03 12:06:46;;;;;;;3.95;3.13;;;27.10;42.70;;;;;;5126907;27;45268;-76
2023/07/03 12:09:23;;;;;;;6.82;3.38;;;27.10;41.10;;;;;;5127236;27;45305;-69
2023/07/03 12:12:21;;;;;;;6.30;2.97;;;27.10;40.80;;;;;;5126591;27;45186;-70
2023/07/03 12:14:56;;;;;;;5.20;2.58;;;27.20;39.20;;;;;;5062599;28;46482;-70
2023/07/03 12:17:24;;;;;;;5.53;3.25;;;27.20;38.50;;;;;;5114608;27;45326;-68
2023/07/03 12:19:55;;;;;;;5.80;3.70;;;27.20;38.30;;;;;;5126278;27;45339;-67
2023/07/03 12:22:26;;;;;;;8.32;3.22;;;27.20;38.10;;;;;;5126476;27;45293;-64
2023/07/03 12:25:01;;;;;;;5.78;4.43;;;27.20;38.10;;;;;;5126121;27;46665;-67
2023/07/03 12:27:28;;;;;;;44.13;33.85;;;27.30;37.90;;;;;;5126663;27;45321;-71
2023/07/03 12:29:54;;;;;;;22.75;14.32;;;27.30;38.00;;;;;;5126681;27;45303;-67
2023/07/03 12:32:27;;;;;;;14.93;10.38;;;27.30;38.50;;;;;;5126384;27;45453;-71
2023/07/03 12:34:54;;;;;;;8.57;4.47;;;27.40;38.40;;;;;;5129671;27;46666;-69
2023/07/03 12:37:25;;;;;;;7.40;5.47;;;27.40;38.30;;;;;;5129684;27;45268;-69
2023/07/03 12:39:52;;;;;;;8.98;5.32;;;27.30;37.90;;;;;;5130077;27;45359;-74
2023/07/03 12:42:23;;;;;;;7.47;3.78;;;27.30;38.50;;;;;;5130622;27;45294;-75
2023/07/03 12:44:50;;;;;;;9.55;4.07;;;27.40;38.40;;;;;;5130840;27;47660;-75
2023/07/03 12:47:17;;;;;;;5.72;4.43;;;27.40;38.70;;;;;;5130080;27;45369;-70
2023/07/03 12:49:55;;;;;;;6.88;3.90;;;27.50;38.30;;;;;;5131971;27;45371;-69